createdAt,value
2019-04-05T00:01:08.310Z,12.23
2019-04-05T00:03:38.425Z,11.00
2019-04-05T00:06:08.621Z,11.53
2019-04-05T00:08:39.014Z,12.75
2019-04-05T00:11:10.663Z,10.88
2019-04-05T00:13:41.106Z,11.20
2019-04-05T00:16:11.215Z,10.23
2019-04-05T00:18:41.301Z,10.43
2019-04-05T00:21:11.393Z,8.90
2019-04-05T00:23:41.780Z,10.10
2019-04-05T00:26:11.875Z,8.28
2019-04-05T00:28:42.331Z,9.05
2019-04-05T00:31:12.760Z,11.35
2019-04-05T00:33:42.861Z,9.28
2019-04-05T00:36:12.898Z,7.83
2019-04-05T00:38:43.016Z,9.15
2019-04-05T00:41:13.123Z,10.25
2019-04-05T00:43:43.156Z,9.45
2019-04-05T00:46:13.628Z,10.23
2019-04-05T00:48:44.798Z,11.90
2019-04-05T00:51:14.953Z,11.93
2019-04-05T00:53:45.065Z,12.68
2019-04-05T00:56:15.099Z,13.35
2019-04-05T00:58:45.283Z,11.25
2019-04-05T01:01:15.326Z,11.60
2019-04-05T01:03:45.426Z,10.80
2019-04-05T01:06:16.666Z,9.28
2019-04-05T01:08:46.839Z,11.30
2019-04-05T01:11:17.426Z,9.25
2019-04-05T01:13:48.042Z,9.63
2019-04-05T01:16:18.143Z,8.28
2019-04-05T01:18:48.511Z,8.88
2019-04-05T01:21:21.186Z,9.80
2019-04-05T01:23:53.826Z,9.30
2019-04-05T01:26:25.757Z,9.25
2019-04-05T01:28:55.855Z,12.20
2019-04-05T01:31:25.994Z,10.53
2019-04-05T01:33:56.160Z,10.45
2019-04-05T01:36:26.343Z,11.05
2019-04-05T01:38:56.376Z,9.53
2019-04-05T01:41:26.556Z,8.73
2019-04-05T01:43:56.971Z,7.00
2019-04-05T01:46:27.603Z,8.25
2019-04-05T01:48:57.903Z,6.10
2019-04-05T01:51:28.070Z,5.20
2019-04-05T01:53:58.266Z,4.87
2019-04-05T01:56:28.621Z,3.25
2019-04-05T01:58:59.128Z,3.02
2019-04-05T02:01:29.298Z,2.65
2019-04-05T02:03:59.397Z,2.40
2019-04-05T02:06:29.661Z,2.15
2019-04-05T02:08:59.829Z,3.00
2019-04-05T02:11:33.413Z,2.20
2019-04-05T02:16:32.754Z,2.95
2019-04-05T02:19:02.939Z,2.52
2019-04-05T02:21:33.369Z,2.55
2019-04-05T02:24:03.530Z,2.70
2019-04-05T02:26:34.017Z,2.00
2019-04-05T02:29:04.656Z,2.27
2019-04-05T02:31:34.837Z,3.33
2019-04-05T02:34:05.008Z,2.27
2019-04-05T02:36:35.525Z,3.40
2019-04-05T02:39:07.590Z,3.60
2019-04-05T02:41:39.077Z,3.75
2019-04-05T02:44:12.725Z,3.05
2019-04-05T02:46:44.511Z,2.62
2019-04-05T02:49:15.389Z,3.60
2019-04-05T02:51:48.510Z,2.70
2019-04-05T02:54:20.118Z,3.25
2019-04-05T02:56:51.195Z,3.20
2019-04-05T02:59:21.753Z,3.02
2019-04-05T03:01:52.671Z,3.15
2019-04-05T03:04:23.141Z,3.65
2019-04-05T03:06:53.424Z,3.12
2019-04-05T03:09:23.979Z,3.37
2019-04-05T03:11:54.553Z,3.20
2019-04-05T03:14:24.922Z,3.22
2019-04-05T03:16:56.497Z,3.22
2019-04-05T03:19:29.599Z,3.45
2019-04-05T03:22:02.704Z,4.47
2019-04-05T03:24:35.814Z,3.87
2019-04-05T03:27:08.936Z,4.42
2019-04-05T03:29:39.608Z,4.60
2019-04-05T03:32:09.815Z,4.75
2019-04-05T03:34:41.386Z,6.05
2019-04-05T03:37:11.884Z,5.10
2019-04-05T03:39:42.045Z,3.80
2019-04-05T03:42:12.248Z,4.80
2019-04-05T03:44:43.120Z,3.72
2019-04-05T03:47:13.790Z,4.55
2019-04-05T03:49:43.973Z,3.70
2019-04-05T03:52:14.644Z,3.83
2019-04-05T03:54:44.820Z,3.00
2019-04-05T03:57:15.963Z,3.52
2019-04-05T03:59:49.226Z,3.47
2019-04-05T04:02:23.324Z,3.30
2019-04-05T04:04:51.382Z,4.10
2019-04-05T04:07:21.476Z,3.42
2019-04-05T04:09:51.877Z,3.12
2019-04-05T04:12:25.232Z,4.28
2019-04-05T04:14:57.042Z,6.47
2019-04-05T04:17:27.826Z,4.30
2019-04-05T04:19:58.005Z,3.72
2019-04-05T04:22:29.388Z,7.37
2019-04-05T04:24:59.946Z,7.35
2019-04-05T04:27:30.702Z,8.95
2019-04-05T04:30:01.131Z,8.70
2019-04-05T04:32:32.244Z,7.33
2019-04-05T04:35:02.814Z,10.82
2019-04-05T04:37:33.089Z,9.33
2019-04-05T04:40:03.970Z,9.40
2019-04-05T04:42:34.140Z,9.23
2019-04-05T04:45:12.525Z,8.65
2019-04-05T04:47:37.956Z,10.65
2019-04-05T04:50:10.082Z,10.10
2019-04-05T04:52:41.522Z,8.90
2019-04-05T04:55:11.990Z,9.80
2019-04-05T04:57:42.149Z,9.75
2019-04-05T05:00:12.423Z,10.93
2019-04-05T05:02:42.928Z,14.43
2019-04-05T05:05:13.571Z,13.25
2019-04-05T05:07:44.159Z,11.93
2019-04-05T05:10:14.317Z,9.63
2019-04-05T05:12:45.089Z,10.43
2019-04-05T05:15:16.037Z,11.12
2019-04-05T05:17:58.168Z,10.55
2019-04-05T05:20:18.704Z,9.28
2019-04-05T05:22:49.242Z,7.50
2019-04-05T05:25:22.425Z,9.70
2019-04-05T05:27:51.884Z,10.55
2019-04-05T05:30:22.042Z,8.55
2019-04-05T05:32:52.324Z,7.75
2019-04-05T05:35:22.426Z,9.10
2019-04-05T05:37:52.585Z,8.55
2019-04-05T05:40:34.238Z,6.55
2019-04-05T05:42:54.462Z,7.37
2019-04-05T05:45:24.619Z,7.67
2019-04-05T05:47:54.782Z,8.73
2019-04-05T05:50:24.814Z,6.47
2019-04-05T05:52:54.904Z,6.90
2019-04-05T05:55:24.943Z,9.50
2019-04-05T05:57:58.545Z,7.85
2019-04-05T06:00:30.311Z,8.58
2019-04-05T06:02:58.415Z,6.35
2019-04-05T06:05:28.880Z,7.47
2019-04-05T06:08:01.074Z,8.78
2019-04-05T06:10:31.049Z,9.83
2019-04-05T06:13:01.086Z,9.35
2019-04-05T06:15:31.500Z,6.85
2019-04-05T06:18:04.941Z,8.78
2019-04-05T06:20:33.335Z,10.40
2019-04-05T06:23:03.441Z,10.68
2019-04-05T06:25:34.315Z,8.25
2019-04-05T06:28:05.479Z,8.45
2019-04-05T06:30:35.509Z,8.15
2019-04-05T06:33:05.539Z,8.65
2019-04-05T06:35:35.571Z,9.00
2019-04-05T06:38:05.618Z,10.85
2019-04-05T06:40:41.044Z,9.65
2019-04-05T06:43:07.626Z,8.63
2019-04-05T06:45:37.713Z,8.98
2019-04-05T06:48:18.531Z,7.47
2019-04-05T06:50:39.818Z,6.67
2019-04-05T06:53:10.256Z,7.90
2019-04-05T06:55:40.358Z,6.40
2019-04-05T06:58:10.668Z,8.00
2019-04-05T07:00:40.989Z,5.42
2019-04-05T07:03:13.556Z,3.60
2019-04-05T07:05:42.682Z,3.58
2019-04-05T07:08:13.020Z,3.70
2019-04-05T07:10:45.212Z,3.87
2019-04-05T07:13:14.694Z,3.17
2019-04-05T07:15:44.725Z,4.58
2019-04-05T07:18:14.820Z,3.00
2019-04-05T07:20:44.851Z,3.22
2019-04-05T07:23:14.881Z,2.37
2019-04-05T07:25:44.991Z,2.77
2019-04-05T07:28:15.004Z,3.33
2019-04-05T07:30:45.043Z,2.72
2019-04-05T07:33:15.443Z,4.12
2019-04-05T07:35:46.458Z,4.28
2019-04-05T07:38:16.916Z,2.60
2019-04-05T07:40:46.951Z,4.65
2019-04-05T07:43:16.983Z,4.12
2019-04-05T07:45:47.082Z,4.05
2019-04-05T07:48:17.105Z,6.50
2019-04-05T07:50:47.217Z,5.83
2019-04-05T07:53:17.312Z,5.20
2019-04-05T07:55:47.425Z,4.28
2019-04-05T07:58:17.522Z,3.75
2019-04-05T08:00:52.729Z,6.67
2019-04-05T08:03:24.008Z,6.87
2019-04-05T08:05:54.659Z,6.45
2019-04-05T08:08:33.610Z,5.22
2019-04-05T08:11:04.090Z,5.60
2019-04-05T08:13:36.478Z,6.15
2019-04-05T08:16:06.632Z,4.70
2019-04-05T08:18:36.815Z,3.90
2019-04-05T08:21:07.991Z,5.15
2019-04-05T08:23:38.048Z,4.08
2019-04-05T08:26:08.218Z,6.22
2019-04-05T08:28:38.262Z,5.22
2019-04-05T08:31:10.821Z,6.37
2019-04-05T08:33:39.933Z,7.37
2019-04-05T08:36:10.340Z,7.00
2019-04-05T08:38:40.371Z,5.10
2019-04-05T08:41:10.406Z,5.67
2019-04-05T08:43:40.507Z,6.30
2019-04-05T08:46:10.594Z,5.58
2019-04-05T08:48:41.045Z,11.05
2019-04-05T08:51:11.476Z,7.00
2019-04-05T08:53:41.898Z,6.47
2019-04-05T08:56:12.381Z,8.98
2019-04-05T08:58:42.405Z,6.62
2019-04-05T09:01:12.524Z,9.55
2019-04-05T09:03:42.558Z,18.15
2019-04-05T09:06:12.741Z,7.83
2019-04-05T09:08:42.782Z,7.22
2019-04-05T09:11:12.940Z,7.03
2019-04-05T09:13:42.966Z,6.72
2019-04-05T09:16:13.007Z,7.37
2019-04-05T09:18:43.059Z,6.85
2019-04-05T09:21:13.094Z,7.62
2019-04-05T09:23:43.117Z,7.37
2019-04-05T09:26:13.154Z,9.73
2019-04-05T09:28:43.189Z,7.25
2019-04-05T09:31:13.694Z,6.58
2019-04-05T09:33:44.120Z,5.28
2019-04-05T09:36:14.146Z,5.85
2019-04-05T09:38:44.222Z,4.40
2019-04-05T09:41:14.210Z,6.85
2019-04-05T09:43:44.374Z,3.80
2019-04-05T09:46:14.407Z,4.85
2019-04-05T09:48:44.522Z,8.33
2019-04-05T09:51:14.540Z,6.95
2019-04-05T09:53:45.660Z,12.70
2019-04-05T09:56:15.690Z,9.05
2019-04-05T09:58:45.759Z,12.13
2019-04-05T10:01:15.791Z,11.93
2019-04-05T10:03:46.803Z,9.65
2019-04-05T10:06:16.905Z,11.85
2019-04-05T10:08:46.937Z,10.25
2019-04-05T10:11:17.350Z,12.15
2019-04-05T10:13:47.448Z,13.13
2019-04-05T10:16:17.893Z,11.25
2019-04-05T10:18:51.322Z,13.60
2019-04-05T10:21:20.081Z,10.63
2019-04-05T10:23:50.089Z,14.50
2019-04-05T10:26:20.201Z,11.28
2019-04-05T10:28:50.647Z,14.20
2019-04-05T10:31:22.222Z,11.20
2019-04-05T10:33:52.279Z,12.00
2019-04-05T10:36:22.305Z,11.35
2019-04-05T10:38:52.334Z,8.08
2019-04-05T10:41:23.114Z,6.25
2019-04-05T10:43:53.310Z,7.17
2019-04-05T10:46:23.836Z,9.68
2019-04-05T10:48:53.866Z,8.15
2019-04-05T10:51:23.903Z,4.60
2019-04-05T10:53:53.929Z,6.92
2019-04-05T10:56:24.134Z,6.72
2019-04-05T10:58:54.301Z,5.55
2019-04-05T11:01:24.397Z,2.92
2019-04-05T11:03:54.437Z,5.55
2019-04-05T11:06:24.551Z,4.10
2019-04-05T11:08:54.579Z,2.70
2019-04-05T11:11:24.603Z,4.40
2019-04-05T11:13:54.712Z,4.15
2019-04-05T11:16:24.730Z,3.35
2019-04-05T11:18:54.828Z,2.83
2019-04-05T11:21:24.926Z,6.17
2019-04-05T11:23:55.642Z,4.67
2019-04-05T11:26:26.398Z,2.12
2019-04-05T11:28:56.496Z,2.45
2019-04-05T11:31:26.596Z,2.27
2019-04-05T11:33:56.774Z,2.37
2019-04-05T11:36:27.355Z,2.00
2019-04-05T11:38:57.538Z,2.52
2019-04-05T11:41:28.402Z,2.62
2019-04-05T11:44:00.739Z,3.90
2019-04-05T11:46:32.229Z,7.72
2019-04-05T11:49:03.828Z,2.42
2019-04-05T11:51:34.704Z,2.30
2019-04-05T11:54:05.259Z,8.10
2019-04-05T11:56:35.681Z,3.02
2019-04-05T11:59:07.429Z,2.62
2019-04-05T12:01:44.830Z,4.12
2019-04-05T12:04:14.938Z,5.70
2019-04-05T12:06:44.983Z,3.87
2019-04-05T12:09:15.055Z,8.20
2019-04-05T12:11:46.450Z,4.50
2019-04-05T12:14:29.651Z,4.20
2019-04-05T12:16:49.870Z,7.37
2019-04-05T12:19:19.914Z,6.12
2019-04-05T12:21:49.943Z,6.42
2019-04-05T12:24:19.973Z,5.85
2019-04-05T12:26:50.086Z,7.10
2019-04-05T12:29:20.128Z,7.28
2019-04-05T12:31:53.158Z,9.28
2019-04-05T12:34:22.387Z,7.75
2019-04-05T12:36:52.607Z,7.62
2019-04-05T12:39:23.335Z,9.25
2019-04-05T12:41:53.372Z,10.30
2019-04-05T12:44:23.393Z,6.62
2019-04-05T12:46:53.437Z,4.55
2019-04-05T12:49:23.461Z,2.98
2019-04-05T12:51:53.501Z,2.15
2019-04-05T12:57:11.410Z,1.87
2019-04-05T12:59:44.294Z,2.62
2019-04-05T13:02:18.885Z,2.95
2019-04-05T13:04:46.014Z,6.65
2019-04-05T13:07:16.066Z,2.25
2019-04-05T13:09:46.447Z,2.62
2019-04-05T13:12:16.434Z,1.57
2019-04-05T13:14:46.446Z,3.60
2019-04-05T13:17:16.450Z,3.45
2019-04-05T13:19:46.536Z,5.30
2019-04-05T13:22:16.546Z,7.80
2019-04-05T13:24:46.560Z,7.55
2019-04-05T13:27:16.643Z,7.40
2019-04-05T13:29:47.359Z,6.30
2019-04-05T13:32:21.544Z,4.17
2019-04-05T13:34:49.944Z,4.90
2019-04-05T13:37:20.760Z,5.97
2019-04-05T13:39:50.846Z,4.55
2019-04-05T13:42:22.752Z,3.70
2019-04-05T13:44:52.788Z,3.27
2019-04-05T13:47:23.234Z,3.92
2019-04-05T13:49:53.261Z,3.58
2019-04-05T13:52:23.290Z,2.30
2019-04-05T13:54:53.308Z,8.28
2019-04-05T13:57:23.411Z,4.92
2019-04-05T13:59:53.439Z,4.22
2019-04-05T14:02:23.474Z,10.63
2019-04-05T14:04:54.318Z,3.10
2019-04-05T14:07:25.311Z,4.12
2019-04-05T14:09:56.452Z,3.70
2019-04-05T14:12:26.474Z,5.25
2019-04-05T14:14:56.577Z,6.10
2019-04-05T14:17:27.686Z,14.50
2019-04-05T14:19:57.746Z,4.97
2019-04-05T14:22:28.178Z,4.08
2019-04-05T14:24:58.289Z,7.22
2019-04-05T14:27:28.297Z,7.25
2019-04-05T14:29:58.320Z,4.00
2019-04-05T14:32:28.376Z,5.80
2019-04-05T14:34:58.399Z,4.42
2019-04-05T14:37:28.425Z,6.97
2019-04-05T14:39:58.813Z,3.77
2019-04-05T14:42:29.796Z,4.78
2019-04-05T14:44:59.890Z,5.33
2019-04-05T14:47:29.918Z,5.60
2019-04-05T14:50:00.998Z,6.03
2019-04-05T14:52:31.846Z,8.25
2019-04-05T14:55:02.028Z,6.87
2019-04-05T14:57:32.627Z,4.30
2019-04-05T15:00:05.077Z,3.95
2019-04-05T15:02:35.285Z,5.78
2019-04-05T15:05:07.217Z,4.10
2019-04-05T15:07:37.952Z,5.25
2019-04-05T15:10:08.474Z,5.00
2019-04-05T15:12:38.578Z,4.33
2019-04-05T15:15:08.856Z,3.70
2019-04-05T15:17:47.973Z,5.10
2019-04-05T15:20:11.851Z,5.85
2019-04-05T15:22:42.321Z,7.92
2019-04-05T15:25:16.680Z,6.65
2019-04-05T15:27:45.178Z,5.50
2019-04-05T15:30:15.345Z,6.28
2019-04-05T15:32:45.638Z,5.92
2019-04-05T15:35:15.759Z,8.85
2019-04-05T15:37:45.841Z,5.97
2019-04-05T15:40:16.038Z,6.20
2019-04-05T15:42:46.048Z,7.15
2019-04-05T15:45:16.821Z,4.47
2019-04-05T15:47:52.526Z,4.35
2019-04-05T15:50:22.053Z,3.62
2019-04-05T15:52:52.688Z,8.23
2019-04-05T15:55:22.793Z,3.55
2019-04-05T15:57:52.890Z,4.70
2019-04-05T16:00:33.738Z,7.12
2019-04-05T16:03:03.846Z,5.05
2019-04-05T16:05:33.950Z,4.42
2019-04-05T16:08:04.108Z,4.72
2019-04-05T16:10:34.203Z,6.28
2019-04-05T16:13:07.907Z,5.87
2019-04-05T16:15:37.350Z,5.05
2019-04-05T16:18:07.450Z,4.17
2019-04-05T16:20:37.554Z,8.58
2019-04-05T16:23:08.128Z,4.28
2019-04-05T16:25:41.314Z,5.40
2019-04-05T16:28:11.341Z,6.08
2019-04-05T16:30:41.762Z,5.80
2019-04-05T16:33:11.807Z,5.30
2019-04-05T16:35:43.512Z,7.05
2019-04-05T16:38:13.575Z,8.00
2019-04-05T16:40:44.676Z,9.48
2019-04-05T16:43:14.709Z,6.85
2019-04-05T16:45:44.889Z,6.37
2019-04-05T16:48:14.973Z,5.62
2019-04-05T16:50:44.997Z,7.72
2019-04-05T16:53:15.419Z,5.87
2019-04-05T16:55:45.443Z,4.42
2019-04-05T16:58:15.470Z,5.47
2019-04-05T17:00:45.564Z,5.30
2019-04-05T17:03:15.640Z,8.58
2019-04-05T17:05:47.140Z,5.22
2019-04-05T17:08:17.157Z,4.97
2019-04-05T17:10:47.190Z,9.63
2019-04-05T17:13:17.291Z,5.40
2019-04-05T17:15:47.803Z,4.10
2019-04-05T17:18:18.283Z,4.47
2019-04-05T17:20:48.390Z,5.75
2019-04-05T17:23:18.427Z,7.53
2019-04-05T17:25:48.576Z,7.15
2019-04-05T17:28:18.669Z,9.58
2019-04-05T17:30:48.717Z,7.20
2019-04-05T17:33:19.151Z,6.72
2019-04-05T17:35:49.276Z,8.90
2019-04-05T17:38:19.292Z,5.83
2019-04-05T17:40:49.390Z,8.85
2019-04-05T17:43:19.428Z,6.37
2019-04-05T17:45:49.451Z,9.45
2019-04-05T17:48:19.493Z,5.05
2019-04-05T17:50:49.661Z,5.78
2019-04-05T17:53:19.773Z,7.72
2019-04-05T17:55:49.925Z,4.95
2019-04-05T17:58:21.279Z,7.45
2019-04-05T18:00:51.448Z,7.28
2019-04-05T18:03:21.481Z,7.90
2019-04-05T18:05:52.679Z,7.87
2019-04-05T18:08:22.822Z,7.95
2019-04-05T18:10:52.923Z,6.55
2019-04-05T18:13:23.426Z,8.85
2019-04-05T18:15:53.482Z,9.95
2019-04-05T18:18:23.522Z,5.12
2019-04-05T18:20:53.622Z,11.45
2019-04-05T18:23:25.408Z,6.95
2019-04-05T18:25:56.399Z,13.17
2019-04-05T18:28:26.494Z,10.40
2019-04-05T18:30:56.532Z,8.30
2019-04-05T18:33:26.549Z,7.33
2019-04-05T18:35:56.651Z,8.53
2019-04-05T18:38:26.683Z,9.93
2019-04-05T18:40:56.794Z,10.48
2019-04-05T18:43:27.215Z,9.10
2019-04-05T18:45:57.321Z,7.53
2019-04-05T18:48:27.409Z,8.40
2019-04-05T18:50:57.887Z,7.37
2019-04-05T18:53:37.499Z,8.50
2019-04-05T18:56:01.557Z,10.53
2019-04-05T18:58:32.066Z,10.32
2019-04-05T19:01:02.179Z,9.98
2019-04-05T19:03:32.316Z,8.25
2019-04-05T19:06:02.390Z,9.35
2019-04-05T19:08:39.507Z,8.93
2019-04-05T19:11:04.707Z,8.80
2019-04-05T19:13:34.835Z,9.15
2019-04-05T19:16:05.111Z,9.53
2019-04-05T19:18:35.222Z,9.58
2019-04-05T19:21:05.524Z,7.67
2019-04-05T19:23:35.776Z,8.68
2019-04-05T19:26:06.301Z,8.10
2019-04-05T19:28:36.333Z,11.38
2019-04-05T19:48:49.739Z,13.15
2019-04-05T19:51:21.376Z,9.85
2019-04-05T19:54:00.797Z,15.25
2019-04-05T19:56:23.141Z,13.00
2019-04-05T19:58:53.263Z,15.60
2019-04-05T20:01:23.302Z,16.35
2019-04-05T20:03:53.445Z,16.37
2019-04-05T20:06:23.463Z,16.70
2019-04-05T20:08:53.603Z,14.85
2019-04-05T20:11:23.750Z,15.65
2019-04-05T20:13:53.819Z,15.98
2019-04-05T20:16:24.181Z,14.07
2019-04-05T20:18:54.602Z,14.20
2019-04-05T20:21:24.765Z,16.77
2019-04-05T20:23:57.273Z,18.95
2019-04-05T20:26:28.448Z,14.87
2019-04-05T20:29:07.310Z,18.25
2019-04-05T20:31:39.160Z,15.72
2019-04-05T20:34:10.302Z,17.42
2019-04-05T20:36:40.793Z,19.70
2019-04-05T20:39:10.920Z,17.80
2019-04-05T20:41:41.039Z,17.02
2019-04-05T20:44:11.646Z,18.95
2019-04-05T20:46:43.277Z,17.07
2019-04-05T20:49:13.310Z,18.40
2019-04-05T20:51:43.359Z,20.55
2019-04-05T20:54:24.750Z,16.57
2019-04-05T20:57:06.594Z,18.70
2019-04-05T20:59:39.653Z,19.70
2019-04-05T21:02:09.836Z,17.90
2019-04-05T21:04:40.282Z,21.15
2019-04-05T21:07:10.313Z,16.45
2019-04-05T21:09:40.435Z,19.12
2019-04-05T21:12:10.512Z,17.80
2019-04-05T21:14:40.548Z,19.70
2019-04-05T21:17:10.597Z,16.10
2019-04-05T21:19:40.638Z,20.48
2019-04-05T21:22:10.981Z,19.75
2019-04-05T21:24:41.057Z,18.42
2019-04-05T21:27:12.676Z,16.60
2019-04-05T21:29:42.798Z,17.57
2019-04-05T21:32:12.810Z,17.92
2019-04-05T21:34:42.821Z,17.92
2019-04-05T21:37:12.836Z,16.17
2019-04-05T21:39:42.847Z,16.42
2019-04-05T21:42:12.863Z,16.62
2019-04-05T21:44:42.942Z,19.87
2019-04-05T21:47:12.959Z,17.73
2019-04-05T21:49:42.968Z,20.65
2019-04-05T21:52:13.336Z,20.82
2019-04-05T21:54:47.857Z,18.42
2019-04-05T21:57:14.984Z,20.97
2019-04-05T21:59:44.995Z,20.68
2019-04-05T22:02:15.388Z,21.25
2019-04-05T22:04:45.391Z,20.17
2019-04-05T22:07:15.571Z,20.23
2019-04-05T22:09:45.580Z,21.37
2019-04-05T22:12:32.956Z,20.12
2019-04-05T22:15:03.207Z,21.60
2019-04-05T22:17:33.743Z,23.73
2019-04-05T22:20:19.644Z,24.35
2019-04-05T22:22:49.985Z,25.55
2019-04-05T22:25:21.022Z,22.77
2019-04-05T22:27:51.020Z,24.85
2019-04-05T22:30:21.163Z,24.82
2019-04-05T22:32:51.265Z,25.52
2019-04-05T22:35:21.284Z,21.52
2019-04-05T22:37:51.689Z,24.12
2019-04-05T22:40:22.130Z,25.00
2019-04-05T22:42:52.177Z,26.45
2019-04-05T22:45:22.529Z,24.50
2019-04-05T22:47:52.567Z,24.90
2019-04-05T22:50:22.672Z,23.50
2019-04-05T22:52:52.707Z,22.60
2019-04-05T22:55:22.748Z,25.48
2019-04-05T22:57:53.179Z,25.70
2019-04-05T23:00:23.290Z,29.27
2019-04-05T23:02:53.394Z,26.27
2019-04-05T23:05:23.436Z,27.37
2019-04-05T23:07:56.293Z,23.95
2019-04-05T23:10:26.328Z,27.07
2019-04-05T23:12:56.365Z,24.65
2019-04-05T23:15:26.487Z,29.57
2019-04-05T23:17:56.508Z,26.07
2019-04-05T23:20:26.575Z,25.10
2019-04-05T23:22:56.680Z,27.98
2019-04-05T23:25:26.724Z,29.12
2019-04-05T23:27:56.763Z,30.75
2019-04-05T23:30:28.168Z,28.15
2019-04-05T23:32:58.204Z,28.65
2019-04-05T23:35:28.237Z,26.07
2019-04-05T23:37:58.281Z,30.30
2019-04-05T23:40:28.314Z,27.17
2019-04-05T23:42:58.441Z,28.27
2019-04-05T23:45:28.984Z,30.55
2019-04-05T23:47:59.029Z,24.12
2019-04-05T23:50:29.065Z,29.92
2019-04-05T23:52:59.108Z,27.55
2019-04-05T23:55:33.619Z,26.57
2019-04-05T23:58:00.805Z,30.23
